sensor_id;sensor_type;location;lat;lon;timestamp;pressure;altitude;pressure_sealevel;temperature;humidity
50250;BME280;36133;42.522;27.456;2023-02-03T00:00:19;101538.13;;;5.58;53.21
50250;BME280;36133;42.522;27.456;2023-02-03T00:02:44;101243.41;;;3.99;52.42
50250;BME280;36133;42.522;27.456;2023-02-03T00:05:09;101434.91;;;5.64;51.35
50250;BME280;36133;42.522;27.456;2023-02-03T00:07:36;101235.03;;;4.04;51.88
50250;BME280;36133;42.522;27.456;2023-02-03T00:10:02;101301.78;;;4.76;50.46
50250;BME280;36133;42.522;27.456;2023-02-03T00:12:28;101569.47;;;6.08;50.45
50250;BME280;36133;42.522;27.456;2023-02-03T00:14:53;101312.81;;;4.52;51.03
50250;BME280;36133;42.522;27.456;2023-02-03T00:17:19;101346.16;;;4.06;51.82
50250;BME280;36133;42.522;27.456;2023-02-03T00:19:44;101282.16;;;4.35;50.31
50250;BME280;36133;42.522;27.456;2023-02-03T00:22:10;101378.16;;;4.90;50.30
50250;BME280;36133;42.522;27.456;2023-02-03T00:24:35;101339.41;;;4.94;49.89
50250;BME280;36133;42.522;27.456;2023-02-03T00:27:01;101433.69;;;6.36;47.72
50250;BME280;36133;42.522;27.456;2023-02-03T00:29:26;101473.19;;;6.82;47.21
50250;BME280;36133;42.522;27.456;2023-02-03T00:31:52;101573.25;;;6.05;50.51
50250;BME280;36133;42.522;27.456;2023-02-03T00:34:18;101448.63;;;5.00;51.91
50250;BME280;36133;42.522;27.456;2023-02-03T00:36:44;101347.94;;;3.85;51.98
50250;BME280;36133;42.522;27.456;2023-02-03T00:39:12;101366.44;;;4.51;51.22
50250;BME280;36133;42.522;27.456;2023-02-03T00:41:38;101551.75;;;5.55;51.43
50250;BME280;36133;42.522;27.456;2023-02-03T00:44:04;101471.19;;;5.07;51.05
50250;BME280;36133;42.522;27.456;2023-02-03T00:46:29;101363.03;;;4.28;51.38
50250;BME280;36133;42.522;27.456;2023-02-03T00:48:55;101596.44;;;6.06;50.35
50250;BME280;36133;42.522;27.456;2023-02-03T00:51:20;101378.97;;;4.29;51.50
50250;BME280;36133;42.522;27.456;2023-02-03T00:53:47;101428.78;;;4.51;52.20
50250;BME280;36133;42.522;27.456;2023-02-03T00:56:12;101545.44;;;5.05;52.59
50250;BME280;36133;42.522;27.456;2023-02-03T00:58:39;101406.50;;;4.09;53.15
50250;BME280;36133;42.522;27.456;2023-02-03T01:01:05;101470.78;;;4.07;54.50
50250;BME280;36133;42.522;27.456;2023-02-03T01:03:30;101196.91;;;2.43;54.31
50250;BME280;36133;42.522;27.456;2023-02-03T01:05:56;101271.00;;;2.72;54.34
50250;BME280;36133;42.522;27.456;2023-02-03T01:08:21;101475.03;;;4.10;54.35
50250;BME280;36133;42.522;27.456;2023-02-03T01:10:48;101258.97;;;2.88;54.40
50250;BME280;36133;42.522;27.456;2023-02-03T01:13:13;101265.22;;;3.10;54.49
50250;BME280;36133;42.522;27.456;2023-02-03T01:15:46;101345.09;;;3.45;54.51
50250;BME280;36133;42.522;27.456;2023-02-03T01:18:12;101359.09;;;3.69;54.50
50250;BME280;36133;42.522;27.456;2023-02-03T01:20:37;101337.16;;;3.55;54.30
50250;BME280;36133;42.522;27.456;2023-02-03T01:23:03;101551.13;;;4.91;54.07
50250;BME280;36133;42.522;27.456;2023-02-03T01:25:28;101517.59;;;4.87;53.56
50250;BME280;36133;42.522;27.456;2023-02-03T01:27:53;101464.25;;;4.32;53.98
50250;BME280;36133;42.522;27.456;2023-02-03T01:30:19;101406.34;;;3.58;55.06
50250;BME280;36133;42.522;27.456;2023-02-03T01:32:45;101229.84;;;2.31;55.67
50250;BME280;36133;42.522;27.456;2023-02-03T01:35:10;101292.59;;;2.91;56.03
50250;BME280;36133;42.522;27.456;2023-02-03T01:37:36;101410.25;;;3.53;56.53
50250;BME280;36133;42.522;27.456;2023-02-03T01:40:01;101512.84;;;4.05;57.03
50250;BME280;36133;42.522;27.456;2023-02-03T01:42:27;101396.63;;;4.41;54.25
50250;BME280;36133;42.522;27.456;2023-02-03T01:44:56;101413.69;;;4.08;55.23
50250;BME280;36133;42.522;27.456;2023-02-03T01:50:15;101559.44;;;5.39;53.84
50250;BME280;36133;42.522;27.456;2023-02-03T01:52:45;101565.72;;;5.28;53.84
50250;BME280;36133;42.522;27.456;2023-02-03T01:55:14;101493.50;;;5.17;53.01
50250;BME280;36133;42.522;27.456;2023-02-03T01:58:30;101535.72;;;5.04;53.26
50250;BME280;36133;42.522;27.456;2023-02-03T02:00:30;101490.06;;;5.06;52.47
50250;BME280;36133;42.522;27.456;2023-02-03T02:02:58;101412.84;;;5.01;51.83
50250;BME280;36133;42.522;27.456;2023-02-03T02:05:39;101510.81;;;5.34;51.77
50250;BME280;36133;42.522;27.456;2023-02-03T02:08:07;101382.84;;;4.46;52.42
50250;BME280;36133;42.522;27.456;2023-02-03T02:10:33;101415.66;;;4.48;52.75
50250;BME280;36133;42.522;27.456;2023-02-03T02:13:00;101560.66;;;5.25;52.88
50250;BME280;36133;42.522;27.456;2023-02-03T02:37:30;101575.34;;;4.89;54.69
50250;BME280;36133;42.522;27.456;2023-02-03T02:45:14;101520.88;;;4.58;54.26
50250;BME280;36133;42.522;27.456;2023-02-03T02:47:42;101591.16;;;5.34;53.17
50250;BME280;36133;42.522;27.456;2023-02-03T02:50:16;101434.78;;;4.44;53.19
50250;BME280;36133;42.522;27.456;2023-02-03T02:52:45;101588.75;;;5.10;53.87
50250;BME280;36133;42.522;27.456;2023-02-03T02:55:20;101555.28;;;4.63;54.24
50250;BME280;36133;42.522;27.456;2023-02-03T02:57:53;101557.66;;;4.98;54.40
50250;BME280;36133;42.522;27.456;2023-02-03T03:00:20;101571.69;;;4.90;54.42
50250;BME280;36133;42.522;27.456;2023-02-03T03:02:46;101458.72;;;4.45;54.03
50250;BME280;36133;42.522;27.456;2023-02-03T03:05:12;101399.16;;;3.69;54.92
50250;BME280;36133;42.522;27.456;2023-02-03T03:07:59;101560.84;;;5.13;53.88
50250;BME280;36133;42.522;27.456;2023-02-03T03:10:30;101566.41;;;5.00;54.00
50250;BME280;36133;42.522;27.456;2023-02-03T03:13:04;101351.25;;;3.57;53.58
50250;BME280;36133;42.522;27.456;2023-02-03T03:15:32;101561.19;;;4.78;54.52
50250;BME280;36133;42.522;27.456;2023-02-03T03:20:38;101551.38;;;4.67;54.78
50250;BME280;36133;42.522;27.456;2023-02-03T03:23:11;101313.72;;;3.15;54.62
50250;BME280;36133;42.522;27.456;2023-02-03T03:25:43;101479.03;;;3.72;55.70
50250;BME280;36133;42.522;27.456;2023-02-03T03:28:21;101589.13;;;3.98;56.85
50250;BME280;36133;42.522;27.456;2023-02-03T03:30:51;101499.22;;;3.65;56.40
50250;BME280;36133;42.522;27.456;2023-02-03T03:33:17;101368.00;;;2.93;56.95
50250;BME280;36133;42.522;27.456;2023-02-03T03:35:48;101408.00;;;3.04;56.48
50250;BME280;36133;42.522;27.456;2023-02-03T03:38:24;101522.56;;;4.06;56.25
50250;BME280;36133;42.522;27.456;2023-02-03T03:41:20;101385.00;;;3.46;55.76
50250;BME280;36133;42.522;27.456;2023-02-03T03:43:52;101505.34;;;3.88;56.59
50250;BME280;36133;42.522;27.456;2023-02-03T03:46:24;101374.25;;;3.14;56.16
50250;BME280;36133;42.522;27.456;2023-02-03T03:48:55;101544.78;;;4.50;55.94
50250;BME280;36133;42.522;27.456;2023-02-03T03:51:36;101526.59;;;4.86;54.27
50250;BME280;36133;42.522;27.456;2023-02-03T03:54:07;101578.91;;;5.20;54.16
50250;BME280;36133;42.522;27.456;2023-02-03T03:56:45;101463.56;;;4.19;54.88
50250;BME280;36133;42.522;27.456;2023-02-03T03:59:13;101360.34;;;3.54;55.30
50250;BME280;36133;42.522;27.456;2023-02-03T04:01:41;101314.25;;;3.52;53.98
50250;BME280;36133;42.522;27.456;2023-02-03T04:04:09;101581.44;;;4.59;55.16
50250;BME280;36133;42.522;27.456;2023-02-03T04:06:37;101601.56;;;4.75;55.12
50250;BME280;36133;42.522;27.456;2023-02-03T04:09:03;101375.00;;;3.16;55.37
50250;BME280;36133;42.522;27.456;2023-02-03T04:11:29;101488.72;;;3.73;55.91
50250;BME280;36133;42.522;27.456;2023-02-03T04:14:13;101608.13;;;4.50;56.26
50250;BME280;36133;42.522;27.456;2023-02-03T04:16:39;101360.84;;;2.60;56.89
50250;BME280;36133;42.522;27.456;2023-02-03T04:19:04;101407.50;;;2.99;56.51
50250;BME280;36133;42.522;27.456;2023-02-03T04:21:30;101397.56;;;2.90;56.67
50250;BME280;36133;42.522;27.456;2023-02-03T04:23:55;101361.44;;;2.86;56.18
50250;BME280;36133;42.522;27.456;2023-02-03T04:26:21;101351.28;;;2.69;56.43
50250;BME280;36133;42.522;27.456;2023-02-03T04:28:47;101465.66;;;2.60;58.18
50250;BME280;36133;42.522;27.456;2023-02-03T04:31:13;101446.59;;;2.54;58.70
50250;BME280;36133;42.522;27.456;2023-02-03T04:33:38;101497.59;;;2.84;59.11
50250;BME280;36133;42.522;27.456;2023-02-03T04:36:04;101623.25;;;3.50;59.68
50250;BME280;36133;42.522;27.456;2023-02-03T04:38:29;101565.06;;;3.09;59.50
50250;BME280;36133;42.522;27.456;2023-02-03T04:40:55;101417.25;;;1.96;60.03
50250;BME280;36133;42.522;27.456;2023-02-03T04:43:20;101626.97;;;3.25;60.00
50250;BME280;36133;42.522;27.456;2023-02-03T04:45:46;101417.78;;;2.48;59.30
50250;BME280;36133;42.522;27.456;2023-02-03T04:48:11;101441.41;;;2.17;60.12
50250;BME280;36133;42.522;27.456;2023-02-03T04:50:37;101507.59;;;2.58;60.60
50250;BME280;36133;42.522;27.456;2023-02-03T04:53:02;101376.16;;;1.88;60.58
50250;BME280;36133;42.522;27.456;2023-02-03T04:55:28;101462.59;;;2.43;60.80
50250;BME280;36133;42.522;27.456;2023-02-03T04:57:58;101525.16;;;3.07;59.63
50250;BME280;36133;42.522;27.456;2023-02-03T05:00:24;101669.91;;;3.79;59.85
50250;BME280;36133;42.522;27.456;2023-02-03T05:02:50;101501.81;;;2.76;59.44
50250;BME280;36133;42.522;27.456;2023-02-03T05:05:16;101515.13;;;2.64;59.76
50250;BME280;36133;42.522;27.456;2023-02-03T05:07:42;101461.88;;;2.52;59.38
50250;BME280;36133;42.522;27.456;2023-02-03T05:10:07;101623.00;;;3.31;59.99
50250;BME280;36133;42.522;27.456;2023-02-03T05:12:33;101626.38;;;3.33;59.57
50250;BME280;36133;42.522;27.456;2023-02-03T05:14:58;101440.56;;;2.17;59.72
50250;BME280;36133;42.522;27.456;2023-02-03T05:17:24;101642.88;;;3.38;59.57
50250;BME280;36133;42.522;27.456;2023-02-03T05:19:49;101611.81;;;2.90;60.23
50250;BME280;36133;42.522;27.456;2023-02-03T05:22:15;101562.69;;;2.47;60.72
50250;BME280;36133;42.522;27.456;2023-02-03T05:24:41;101585.91;;;2.92;60.44
50250;BME280;36133;42.522;27.456;2023-02-03T05:27:06;101621.16;;;3.31;59.19
50250;BME280;36133;42.522;27.456;2023-02-03T05:29:32;101730.31;;;4.49;57.85
50250;BME280;36133;42.522;27.456;2023-02-03T05:31:57;101456.25;;;2.90;57.54
50250;BME280;36133;42.522;27.456;2023-02-03T05:34:23;101728.06;;;4.77;57.03
50250;BME280;36133;42.522;27.456;2023-02-03T05:36:48;101711.66;;;4.59;56.63
50250;BME280;36133;42.522;27.456;2023-02-03T05:39:14;101746.03;;;4.86;56.49
50250;BME280;36133;42.522;27.456;2023-02-03T05:41:39;101727.53;;;5.26;55.07
50250;BME280;36133;42.522;27.456;2023-02-03T05:44:26;101736.94;;;4.77;55.46
50250;BME280;36133;42.522;27.456;2023-02-03T05:46:55;101745.13;;;4.42;55.97
50250;BME280;36133;42.522;27.456;2023-02-03T05:49:22;101664.78;;;4.21;55.29
50250;BME280;36133;42.522;27.456;2023-02-03T05:51:48;101765.38;;;4.89;54.73
50250;BME280;36133;42.522;27.456;2023-02-03T05:54:14;101515.94;;;3.67;54.27
50250;BME280;36133;42.522;27.456;2023-02-03T05:56:40;101608.09;;;3.84;55.17
50250;BME280;36133;42.522;27.456;2023-02-03T05:59:06;101630.06;;;3.54;56.72
50250;BME280;36133;42.522;27.456;2023-02-03T06:01:33;101731.63;;;4.44;55.57
50250;BME280;36133;42.522;27.456;2023-02-03T06:03:59;101748.13;;;4.60;55.53
50250;BME280;36133;42.522;27.456;2023-02-03T06:06:25;101775.00;;;4.58;55.84
50250;BME280;36133;42.522;27.456;2023-02-03T06:08:58;101705.31;;;4.71;54.83
50250;BME280;36133;42.522;27.456;2023-02-03T06:11:23;101630.88;;;4.76;53.15
50250;BME280;36133;42.522;27.456;2023-02-03T06:13:49;101722.31;;;5.87;52.26
50250;BME280;36133;42.522;27.456;2023-02-03T06:16:15;101730.91;;;6.92;50.06
50250;BME280;36133;42.522;27.456;2023-02-03T06:18:41;101589.03;;;6.97;47.95
50250;BME280;36133;42.522;27.456;2023-02-03T06:21:07;101527.28;;;5.70;49.17
50250;BME280;36133;42.522;27.456;2023-02-03T06:23:32;101519.09;;;5.62;49.69
50250;BME280;36133;42.522;27.456;2023-02-03T06:25:58;101746.78;;;7.33;49.20
50250;BME280;36133;42.522;27.456;2023-02-03T06:28:25;101720.34;;;7.29;48.93
50250;BME280;36133;42.522;27.456;2023-02-03T06:30:51;101572.59;;;7.66;46.00
50250;BME280;36133;42.522;27.456;2023-02-03T06:33:18;101476.63;;;8.83;42.12
50250;BME280;36133;42.522;27.456;2023-02-03T06:35:43;101553.38;;;8.61;42.79
50250;BME280;36133;42.522;27.456;2023-02-03T06:38:09;101494.91;;;6.89;46.48
50250;BME280;36133;42.522;27.456;2023-02-03T06:40:35;101599.94;;;6.66;47.58
50250;BME280;36133;42.522;27.456;2023-02-03T06:43:01;101602.03;;;5.94;49.82
50250;BME280;36133;42.522;27.456;2023-02-03T06:45:26;101774.50;;;6.65;50.79
50250;BME280;36133;42.522;27.456;2023-02-03T06:47:52;101783.97;;;6.69;51.30
50250;BME280;36133;42.522;27.456;2023-02-03T06:50:17;101686.41;;;6.39;50.58
50250;BME280;36133;42.522;27.456;2023-02-03T06:52:43;101747.31;;;6.98;50.53
50250;BME280;36133;42.522;27.456;2023-02-03T06:55:09;101649.50;;;9.04;45.92
50250;BME280;36133;42.522;27.456;2023-02-03T06:57:35;101779.34;;;10.83;43.53
50250;BME280;36133;42.522;27.456;2023-02-03T07:00:07;101660.84;;;11.21;40.63
50250;BME280;36133;42.522;27.456;2023-02-03T07:02:32;101652.66;;;11.78;39.34
50250;BME280;36133;42.522;27.456;2023-02-03T07:04:58;101701.38;;;11.94;39.41
50250;BME280;36133;42.522;27.456;2023-02-03T07:07:23;101775.13;;;11.63;41.03
50250;BME280;36133;42.522;27.456;2023-02-03T07:09:49;101717.47;;;11.87;40.60
50250;BME280;36133;42.522;27.456;2023-02-03T07:12:14;101779.28;;;10.41;43.85
50250;BME280;36133;42.522;27.456;2023-02-03T07:14:40;101673.94;;;8.03;47.04
50250;BME280;36133;42.522;27.456;2023-02-03T07:17:05;101498.63;;;6.68;48.92
50250;BME280;36133;42.522;27.456;2023-02-03T07:19:31;101616.56;;;6.99;50.10
50250;BME280;36133;42.522;27.456;2023-02-03T07:21:56;101790.03;;;7.59;51.06
50250;BME280;36133;42.522;27.456;2023-02-03T07:24:22;101599.72;;;6.29;51.19
50250;BME280;36133;42.522;27.456;2023-02-03T07:26:47;101794.81;;;7.94;50.97
50250;BME280;36133;42.522;27.456;2023-02-03T07:29:14;101600.69;;;5.88;52.48
50250;BME280;36133;42.522;27.456;2023-02-03T07:31:40;101717.94;;;6.07;53.50
50250;BME280;36133;42.522;27.456;2023-02-03T07:34:06;101555.38;;;5.45;52.68
50250;BME280;36133;42.522;27.456;2023-02-03T07:36:32;101762.28;;;7.01;51.97
50250;BME280;36133;42.522;27.456;2023-02-03T07:38:57;101805.00;;;7.14;52.96
50250;BME280;36133;42.522;27.456;2023-02-03T07:41:23;101824.56;;;7.83;51.81
50250;BME280;36133;42.522;27.456;2023-02-03T07:43:49;101729.25;;;8.05;49.97
50250;BME280;36133;42.522;27.456;2023-02-03T07:46:14;101713.13;;;8.05;49.82
50250;BME280;36133;42.522;27.456;2023-02-03T07:48:40;101781.34;;;8.14;50.32
50250;BME280;36133;42.522;27.456;2023-02-03T07:51:06;101725.50;;;7.88;49.36
50250;BME280;36133;42.522;27.456;2023-02-03T07:53:32;101708.38;;;7.89;49.01
50250;BME280;36133;42.522;27.456;2023-02-03T07:56:02;101807.63;;;8.39;48.72
50250;BME280;36133;42.522;27.456;2023-02-03T07:58:28;101779.97;;;8.47;48.19
50250;BME280;36133;42.522;27.456;2023-02-03T08:00:55;101713.38;;;8.76;47.17
50250;BME280;36133;42.522;27.456;2023-02-03T08:03:21;101628.03;;;9.82;44.44
50250;BME280;36133;42.522;27.456;2023-02-03T08:05:47;101560.66;;;10.57;42.29
50250;BME280;36133;42.522;27.456;2023-02-03T08:08:12;101672.44;;;11.78;41.59
50250;BME280;36133;42.522;27.456;2023-02-03T08:10:38;101564.97;;;11.56;40.40
50250;BME280;36133;42.522;27.456;2023-02-03T08:13:03;101633.84;;;13.16;38.08
50250;BME280;36133;42.522;27.456;2023-02-03T08:15:29;101807.47;;;13.08;40.19
50250;BME280;36133;42.522;27.456;2023-02-03T08:17:54;101540.53;;;12.19;38.68
50250;BME280;36133;42.522;27.456;2023-02-03T08:20:25;101822.81;;;14.68;36.90
50250;BME280;36133;42.522;27.456;2023-02-03T08:22:54;101818.84;;;15.36;37.66
50250;BME280;36133;42.522;27.456;2023-02-03T08:25:19;101624.31;;;15.04;34.94
50250;BME280;36133;42.522;27.456;2023-02-03T08:27:45;101597.22;;;16.08;33.46
50250;BME280;36133;42.522;27.456;2023-02-03T08:30:12;101806.75;;;17.00;33.92
50250;BME280;36133;42.522;27.456;2023-02-03T08:32:38;101801.44;;;16.51;34.71
50250;BME280;36133;42.522;27.456;2023-02-03T08:35:04;101810.59;;;20.12;29.95
50250;BME280;36133;42.522;27.456;2023-02-03T08:37:30;101743.25;;;22.49;26.36
50250;BME280;36133;42.522;27.456;2023-02-03T08:39:57;101680.38;;;21.48;26.27
50250;BME280;36133;42.522;27.456;2023-02-03T08:42:23;101802.56;;;22.80;24.49
50250;BME280;36133;42.522;27.456;2023-02-03T08:44:49;101826.50;;;20.46;27.54
50250;BME280;36133;42.522;27.456;2023-02-03T08:47:15;101655.97;;;19.20;27.36
50250;BME280;36133;42.522;27.456;2023-02-03T08:49:41;101784.53;;;17.71;29.12
50250;BME280;36133;42.522;27.456;2023-02-03T08:52:09;101580.44;;;13.55;34.02
50250;BME280;36133;42.522;27.456;2023-02-03T08:54:35;101443.31;;;15.02;31.25
50250;BME280;36133;42.522;27.456;2023-02-03T08:57:01;101550.50;;;19.17;27.25
50250;BME280;36133;42.522;27.456;2023-02-03T08:59:27;101518.47;;;20.99;24.55
50250;BME280;36133;42.522;27.456;2023-02-03T09:01:53;101378.00;;;21.02;23.32
50250;BME280;36133;42.522;27.456;2023-02-03T09:04:19;101359.63;;;18.20;26.23
50250;BME280;36133;42.522;27.456;2023-02-03T09:06:49;101754.41;;;19.01;27.43
50250;BME280;36133;42.522;27.456;2023-02-03T09:09:15;101699.34;;;16.19;31.06
50250;BME280;36133;42.522;27.456;2023-02-03T09:11:44;101798.59;;;15.60;33.01
50250;BME280;36133;42.522;27.456;2023-02-03T09:14:10;101748.72;;;15.38;33.36
50250;BME280;36133;42.522;27.456;2023-02-03T09:16:36;101846.31;;;15.99;32.95
50250;BME280;36133;42.522;27.456;2023-02-03T09:19:01;101564.88;;;16.46;30.08
50250;BME280;36133;42.522;27.456;2023-02-03T09:21:27;101710.88;;;18.29;28.99
50250;BME280;36133;42.522;27.456;2023-02-03T09:23:53;101532.84;;;15.59;31.04
50250;BME280;36133;42.522;27.456;2023-02-03T09:26:18;101445.13;;;15.57;30.21
50250;BME280;36133;42.522;27.456;2023-02-03T09:28:46;101607.34;;;16.68;30.39
50250;BME280;36133;42.522;27.456;2023-02-03T09:31:14;101644.16;;;19.76;26.22
50250;BME280;36133;42.522;27.456;2023-02-03T09:33:44;101783.41;;;21.69;25.22
50250;BME280;36133;42.522;27.456;2023-02-03T09:36:10;101624.16;;;20.78;25.38
50250;BME280;36133;42.522;27.456;2023-02-03T09:38:36;101779.03;;;18.30;29.08
50250;BME280;36133;42.522;27.456;2023-02-03T09:44:40;101587.88;;;15.82;31.15
50250;BME280;36133;42.522;27.456;2023-02-03T09:47:17;101831.38;;;15.52;33.59
50250;BME280;36133;42.522;27.456;2023-02-03T09:49:57;101761.47;;;16.64;31.85
50250;BME280;36133;42.522;27.456;2023-02-03T09:52:39;101550.28;;;19.62;26.77
50250;BME280;36133;42.522;27.456;2023-02-03T10:00:45;101806.16;;;19.48;28.05
50250;BME280;36133;42.522;27.456;2023-02-03T10:14:33;101801.91;;;21.13;25.74
50250;BME280;36133;42.522;27.456;2023-02-03T10:19:40;101788.34;;;20.82;25.75
50250;BME280;36133;42.522;27.456;2023-02-03T10:22:12;101788.28;;;21.78;24.17
50250;BME280;36133;42.522;27.456;2023-02-03T10:24:44;101782.19;;;18.34;28.02
50250;BME280;36133;42.522;27.456;2023-02-03T10:27:23;101763.59;;;20.88;25.48
50250;BME280;36133;42.522;27.456;2023-02-03T10:30:01;101783.19;;;21.82;24.04
50250;BME280;36133;42.522;27.456;2023-02-03T10:32:28;101764.47;;;23.58;22.95
50250;BME280;36133;42.522;27.456;2023-02-03T10:34:54;101736.34;;;24.45;21.72
50250;BME280;36133;42.522;27.456;2023-02-03T10:37:29;101753.03;;;23.66;22.11
50250;BME280;36133;42.522;27.456;2023-02-03T10:39:58;101535.94;;;21.63;22.22
50250;BME280;36133;42.522;27.456;2023-02-03T10:42:24;101764.91;;;26.44;19.88
50250;BME280;36133;42.522;27.456;2023-02-03T10:45:11;101666.25;;;21.56;23.74
50250;BME280;36133;42.522;27.456;2023-02-03T10:47:40;101771.84;;;24.58;21.58
50250;BME280;36133;42.522;27.456;2023-02-03T10:50:22;101710.91;;;24.04;21.36
50250;BME280;36133;42.522;27.456;2023-02-03T10:52:48;101699.59;;;27.67;18.56
50250;BME280;36133;42.522;27.456;2023-02-03T10:57:48;101761.13;;;24.40;20.93
50250;BME280;36133;42.522;27.456;2023-02-03T11:00:27;101757.41;;;24.95;20.91
50250;BME280;36133;42.522;27.456;2023-02-03T11:03:27;101710.66;;;22.30;23.00
50250;BME280;36133;42.522;27.456;2023-02-03T11:08:36;101746.06;;;18.05;28.27
50250;BME280;36133;42.522;27.456;2023-02-03T11:11:08;101784.78;;;17.08;30.10
50250;BME280;36133;42.522;27.456;2023-02-03T11:13:34;101778.06;;;18.83;28.04
50250;BME280;36133;42.522;27.456;2023-02-03T11:16:05;101584.09;;;20.29;25.40
50250;BME280;36133;42.522;27.456;2023-02-03T11:26:44;101730.59;;;22.02;24.39
50250;BME280;36133;42.522;27.456;2023-02-03T11:29:24;101643.41;;;22.37;22.56
50250;BME280;36133;42.522;27.456;2023-02-03T11:31:52;101747.09;;;21.37;24.25
50250;BME280;36133;42.522;27.456;2023-02-03T11:34:21;101764.06;;;21.33;24.19
50250;BME280;36133;42.522;27.456;2023-02-03T11:36:50;101638.13;;;18.28;26.79
50250;BME280;36133;42.522;27.456;2023-02-03T11:39:19;101754.13;;;18.65;27.42
50250;BME280;36133;42.522;27.456;2023-02-03T11:41:47;101760.47;;;20.66;25.44
50250;BME280;36133;42.522;27.456;2023-02-03T11:44:22;101752.84;;;17.02;29.74
50250;BME280;36133;42.522;27.456;2023-02-03T11:46:49;101772.88;;;16.75;30.59
50250;BME280;36133;42.522;27.456;2023-02-03T11:52:01;101778.16;;;15.49;32.13
50250;BME280;36133;42.522;27.456;2023-02-03T11:54:39;101778.03;;;16.28;31.63
50250;BME280;36133;42.522;27.456;2023-02-03T11:57:16;101776.50;;;15.91;31.91
50250;BME280;36133;42.522;27.456;2023-02-03T12:05:30;101782.44;;;15.59;32.20
50250;BME280;36133;42.522;27.456;2023-02-03T12:10:59;101723.91;;;13.95;33.88
50250;BME280;36133;42.522;27.456;2023-02-03T12:13:49;101779.16;;;15.06;33.03
50250;BME280;36133;42.522;27.456;2023-02-03T12:21:56;101753.06;;;12.71;36.70
50250;BME280;36133;42.522;27.456;2023-02-03T12:30:59;101696.16;;;17.04;29.09
50250;BME280;36133;42.522;27.456;2023-02-03T12:33:34;101740.72;;;16.29;30.02
50250;BME280;36133;42.522;27.456;2023-02-03T12:36:12;101652.66;;;14.74;31.19
50250;BME280;36133;42.522;27.456;2023-02-03T12:38:52;101769.28;;;15.41;31.33
50250;BME280;36133;42.522;27.456;2023-02-03T12:41:27;101769.56;;;13.92;34.07
50250;BME280;36133;42.522;27.456;2023-02-03T12:44:00;101769.09;;;14.55;33.23
50250;BME280;36133;42.522;27.456;2023-02-03T12:46:43;101738.25;;;14.63;32.99
50250;BME280;36133;42.522;27.456;2023-02-03T12:49:27;101763.88;;;16.46;30.70
50250;BME280;36133;42.522;27.456;2023-02-03T12:52:20;101578.19;;;17.75;27.50
50250;BME280;36133;42.522;27.456;2023-02-03T12:54:50;101708.16;;;18.87;26.68
50250;BME280;36133;42.522;27.456;2023-02-03T12:57:34;101766.66;;;15.69;30.50
50250;BME280;36133;42.522;27.456;2023-02-03T13:02:41;101744.47;;;21.42;24.45
50250;BME280;36133;42.522;27.456;2023-02-03T13:08:41;101768.84;;;15.80;31.42
50250;BME280;36133;42.522;27.456;2023-02-03T13:11:30;101596.97;;;13.30;34.26
50250;BME280;36133;42.522;27.456;2023-02-03T13:14:23;101571.84;;;13.66;33.92
50250;BME280;36133;42.522;27.456;2023-02-03T13:16:56;101634.72;;;14.43;33.12
50250;BME280;36133;42.522;27.456;2023-02-03T13:19:29;101621.13;;;14.58;32.39
50250;BME280;36133;42.522;27.456;2023-02-03T13:22:00;101751.66;;;14.64;33.28
50250;BME280;36133;42.522;27.456;2023-02-03T13:24:27;101624.50;;;15.24;31.70
50250;BME280;36133;42.522;27.456;2023-02-03T13:27:19;101566.63;;;15.99;29.33
50250;BME280;36133;42.522;27.456;2023-02-03T13:32:58;101715.09;;;18.89;27.32
50250;BME280;36133;42.522;27.456;2023-02-03T13:40:55;101735.06;;;19.91;25.62
50250;BME280;36133;42.522;27.456;2023-02-03T13:43:30;101734.22;;;20.15;25.00
50250;BME280;36133;42.522;27.456;2023-02-03T13:45:58;101664.75;;;20.03;24.80
50250;BME280;36133;42.522;27.456;2023-02-03T13:48:30;101638.84;;;18.03;27.03
50250;BME280;36133;42.522;27.456;2023-02-03T13:51:15;101683.59;;;19.75;25.47
50250;BME280;36133;42.522;27.456;2023-02-03T13:53:43;101740.22;;;18.73;27.22
50250;BME280;36133;42.522;27.456;2023-02-03T13:56:19;101709.69;;;18.76;27.12
50250;BME280;36133;42.522;27.456;2023-02-03T14:01:35;101751.47;;;17.52;28.61
50250;BME280;36133;42.522;27.456;2023-02-03T14:04:05;101652.94;;;17.67;28.26
50250;BME280;36133;42.522;27.456;2023-02-03T14:12:18;101716.03;;;18.70;26.64
50250;BME280;36133;42.522;27.456;2023-02-03T14:14:56;101610.75;;;17.83;27.71
50250;BME280;36133;42.522;27.456;2023-02-03T14:17:52;101721.44;;;18.12;27.60
50250;BME280;36133;42.522;27.456;2023-02-03T14:25:22;101743.97;;;18.85;27.12
50250;BME280;36133;42.522;27.456;2023-02-03T14:28:01;101280.44;;;14.10;29.81
50250;BME280;36133;42.522;27.456;2023-02-03T14:30:28;101520.78;;;14.20;32.31
50250;BME280;36133;42.522;27.456;2023-02-03T14:32:58;101533.75;;;13.89;33.20
50250;BME280;36133;42.522;27.456;2023-02-03T14:35:38;101739.44;;;16.25;31.51
50250;BME280;36133;42.522;27.456;2023-02-03T14:38:08;101743.66;;;14.92;33.72
50250;BME280;36133;42.522;27.456;2023-02-03T14:40:58;101754.13;;;14.95;33.48
50250;BME280;36133;42.522;27.456;2023-02-03T14:43:40;101757.44;;;15.70;32.74
50250;BME280;36133;42.522;27.456;2023-02-03T14:46:24;101706.56;;;14.70;33.66
50250;BME280;36133;42.522;27.456;2023-02-03T14:51:49;101755.28;;;12.67;37.27
50250;BME280;36133;42.522;27.456;2023-02-03T15:00:01;101563.88;;;11.09;38.01
50250;BME280;36133;42.522;27.456;2023-02-03T15:02:31;101504.59;;;10.51;38.26
50250;BME280;36133;42.522;27.456;2023-02-03T15:07:45;101761.56;;;11.55;39.00